Terminal Aerodrome Forecast
Issued by NWS Goodland, KS

Home | Current Version | Previous Version | Text Only | Print | Product List | Glossary On
Versions: 1 2 3 4 5 6 7 8 9 10 11 12 13 14 15 16
000
FTUS43 KGLD 211150
TAFGLD
TAF
KGLD 211150Z 2112/2212 24006KT P6SM SCT100 SCT250
     FM211900 22013KT P6SM SCT080 BKN150
     FM220300 30016G27KT P6SM BKN060
     FM221000 32018G28KT P6SM BKN100=

USA.gov is the U.S. government's official web portal to all federal, state and local government web resources and services.